Time;durP1;ratioP1;P1;durP2;ratioP2;P2;SDS_P1;SDS_P2;PMS_P1;PMS_P2;Temp;Humidity;BMP_temperature;BMP_pressure;BME280_temperature;BME280_humidity;BME280_pressure;Samples;Min_cycle;Max_cycle;Signal;HPM_P1;HPM_P2
2021/01/08 00:00:14;;;;;;;24.6;13.35;;;;;;;-0.43;93.30176;94797.91;;;;
2021/01/08 00:01:16;;;;;;;24.6;13.35;;;;;;;-0.43;93.30176;94797.91;;;;
2021/01/08 00:02:17;;;;;;;24.6;13.35;;;;;;;-0.43;93.30176;94797.91;;;;
2021/01/08 00:03:18;;;;;;;24.6;13.35;;;;;;;-0.43;93.30176;94797.91;;;;
2021/01/08 00:04:20;;;;;;;24.6;13.35;;;;;;;-0.43;93.30176;94797.91;;;;
2021/01/08 00:05:20;;;;;;;24.6;13.35;;;;;;;-0.43;93.30176;94797.91;;;;
2021/01/08 00:06:21;;;;;;;24.6;13.35;;;;;;;-0.43;93.30176;94797.91;;;;
2021/01/08 00:07:21;;;;;;;24.6;13.35;;;;;;;-0.43;93.30176;94797.91;;;;
2021/01/08 00:08:22;;;;;;;24.6;13.35;;;;;;;-0.43;93.30176;94797.91;;;;
2021/01/08 00:09:22;;;;;;;24.6;13.35;;;;;;;-0.43;93.30176;94797.91;;;;
2021/01/08 00:10:23;;;;;;;27.55;14.2;;;;;;;-0.45;93.34668;94799.91;;;;
2021/01/08 00:11:24;;;;;;;27.55;14.2;;;;;;;-0.45;93.34668;94799.91;;;;
2021/01/08 00:12:24;;;;;;;27.55;14.2;;;;;;;-0.45;93.34668;94799.91;;;;
2021/01/08 00:13:29;;;;;;;27.55;14.2;;;;;;;-0.45;93.34668;94799.91;;;;
2021/01/08 00:14:29;;;;;;;27.55;14.2;;;;;;;-0.45;93.34668;94799.91;;;;
2021/01/08 00:15:29;;;;;;;27.55;14.2;;;;;;;-0.45;93.34668;94799.91;;;;
2021/01/08 00:16:30;;;;;;;27.55;14.2;;;;;;;-0.45;93.34668;94799.91;;;;
2021/01/08 00:17:34;;;;;;;27.55;14.2;;;;;;;-0.45;93.34668;94799.91;;;;
2021/01/08 00:18:34;;;;;;;27.55;14.2;;;;;;;-0.45;93.34668;94799.91;;;;
2021/01/08 00:19:35;;;;;;;27.55;14.2;;;;;;;-0.45;93.34668;94799.91;;;;
2021/01/08 00:20:35;;;;;;;24.1;12.55;;;;;;;-0.45;93.56445;94798.58;;;;
2021/01/08 00:21:36;;;;;;;24.1;12.55;;;;;;;-0.45;93.56445;94798.58;;;;
2021/01/08 00:22:38;;;;;;;24.1;12.55;;;;;;;-0.45;93.56445;94798.58;;;;
2021/01/08 00:23:38;;;;;;;24.1;12.55;;;;;;;-0.45;93.56445;94798.58;;;;
2021/01/08 00:24:39;;;;;;;24.1;12.55;;;;;;;-0.45;93.56445;94798.58;;;;
2021/01/08 00:25:39;;;;;;;24.1;12.55;;;;;;;-0.45;93.56445;94798.58;;;;
2021/01/08 00:26:40;;;;;;;24.1;12.55;;;;;;;-0.45;93.56445;94798.58;;;;
2021/01/08 00:27:41;;;;;;;24.1;12.55;;;;;;;-0.45;93.56445;94798.58;;;;
2021/01/08 00:28:42;;;;;;;24.1;12.55;;;;;;;-0.45;93.56445;94798.58;;;;
2021/01/08 00:29:44;;;;;;;24.1;12.55;;;;;;;-0.45;93.56445;94798.58;;;;
2021/01/08 00:30:44;;;;;;;24.1;12.55;;;;;;;-0.45;93.56445;94798.58;;;;
2021/01/08 00:31:45;;;;;;;24.9;13.85;;;;;;;-0.44;93.58984;94791.35;;;;
2021/01/08 00:32:47;;;;;;;24.9;13.85;;;;;;;-0.44;93.58984;94791.35;;;;
2021/01/08 00:33:48;;;;;;;24.9;13.85;;;;;;;-0.44;93.58984;94791.35;;;;
2021/01/08 00:34:48;;;;;;;24.9;13.85;;;;;;;-0.44;93.58984;94791.35;;;;
2021/01/08 00:35:49;;;;;;;24.9;13.85;;;;;;;-0.44;93.58984;94791.35;;;;
2021/01/08 00:36:49;;;;;;;24.9;13.85;;;;;;;-0.44;93.58984;94791.35;;;;
2021/01/08 00:37:52;;;;;;;24.9;13.85;;;;;;;-0.44;93.58984;94791.35;;;;
2021/01/08 00:38:52;;;;;;;24.9;13.85;;;;;;;-0.44;93.58984;94791.35;;;;
2021/01/08 00:39:53;;;;;;;24.9;13.85;;;;;;;-0.44;93.58984;94791.35;;;;
2021/01/08 00:40:53;;;;;;;24.9;13.85;;;;;;;-0.44;93.58984;94791.35;;;;
2021/01/08 00:41:54;;;;;;;25.2;13.8;;;;;;;-0.53;93.75781;94780.02;;;;
2021/01/08 00:42:54;;;;;;;25.2;13.8;;;;;;;-0.53;93.75781;94780.02;;;;
2021/01/08 00:43:54;;;;;;;25.2;13.8;;;;;;;-0.53;93.75781;94780.02;;;;
2021/01/08 00:44:55;;;;;;;25.2;13.8;;;;;;;-0.53;93.75781;94780.02;;;;
2021/01/08 00:45:55;;;;;;;25.2;13.8;;;;;;;-0.53;93.75781;94780.02;;;;
2021/01/08 00:46:56;;;;;;;25.2;13.8;;;;;;;-0.53;93.75781;94780.02;;;;
2021/01/08 00:47:56;;;;;;;25.2;13.8;;;;;;;-0.53;93.75781;94780.02;;;;
2021/01/08 00:48:57;;;;;;;25.2;13.8;;;;;;;-0.53;93.75781;94780.02;;;;
2021/01/08 00:49:58;;;;;;;25.2;13.8;;;;;;;-0.53;93.75781;94780.02;;;;
2021/01/08 00:50:58;;;;;;;25.2;13.8;;;;;;;-0.53;93.75781;94780.02;;;;
2021/01/08 00:51:59;;;;;;;25.2;13.8;;;;;;;-0.53;93.75781;94780.02;;;;
2021/01/08 00:53:00;;;;;;;24.4;12.9;;;;;;;-0.57;94.03711;94785.85;;;;
2021/01/08 00:54:01;;;;;;;24.4;12.9;;;;;;;-0.57;94.03711;94785.85;;;;
2021/01/08 00:55:03;;;;;;;24.4;12.9;;;;;;;-0.57;94.03711;94785.85;;;;
2021/01/08 00:56:04;;;;;;;24.4;12.9;;;;;;;-0.57;94.03711;94785.85;;;;
2021/01/08 00:57:05;;;;;;;24.4;12.9;;;;;;;-0.57;94.03711;94785.85;;;;
2021/01/08 00:58:05;;;;;;;24.4;12.9;;;;;;;-0.57;94.03711;94785.85;;;;
2021/01/08 00:59:06;;;;;;;24.4;12.9;;;;;;;-0.57;94.03711;94785.85;;;;
2021/01/08 01:00:06;;;;;;;24.4;12.9;;;;;;;-0.57;94.03711;94785.85;;;;
2021/01/08 01:01:08;;;;;;;24.4;12.9;;;;;;;-0.57;94.03711;94785.85;;;;
2021/01/08 01:02:08;;;;;;;24.4;12.9;;;;;;;-0.57;94.03711;94785.85;;;;
2021/01/08 01:03:09;;;;;;;22.05;12.35;;;;;;;-0.6;94.17871;94783.06;;;;
2021/01/08 01:04:09;;;;;;;22.05;12.35;;;;;;;-0.6;94.17871;94783.06;;;;
2021/01/08 01:05:10;;;;;;;22.05;12.35;;;;;;;-0.6;94.17871;94783.06;;;;
2021/01/08 01:06:10;;;;;;;22.05;12.35;;;;;;;-0.6;94.17871;94783.06;;;;
2021/01/08 01:07:11;;;;;;;22.05;12.35;;;;;;;-0.6;94.17871;94783.06;;;;
2021/01/08 01:08:12;;;;;;;22.05;12.35;;;;;;;-0.6;94.17871;94783.06;;;;
2021/01/08 01:09:12;;;;;;;22.05;12.35;;;;;;;-0.6;94.17871;94783.06;;;;
2021/01/08 01:10:13;;;;;;;22.05;12.35;;;;;;;-0.6;94.17871;94783.06;;;;
2021/01/08 01:11:13;;;;;;;22.05;12.35;;;;;;;-0.6;94.17871;94783.06;;;;
2021/01/08 01:12:14;;;;;;;22.05;12.35;;;;;;;-0.6;94.17871;94783.06;;;;
2021/01/08 01:13:15;;;;;;;22.05;12.35;;;;;;;-0.6;94.17871;94783.06;;;;
2021/01/08 01:14:15;;;;;;;23.05;12.6;;;;;;;-0.65;94.20703;94794.3;;;;
2021/01/08 01:15:17;;;;;;;23.05;12.6;;;;;;;-0.65;94.20703;94794.3;;;;
2021/01/08 01:16:17;;;;;;;23.05;12.6;;;;;;;-0.65;94.20703;94794.3;;;;
2021/01/08 01:17:20;;;;;;;23.05;12.6;;;;;;;-0.65;94.20703;94794.3;;;;
2021/01/08 01:18:20;;;;;;;23.05;12.6;;;;;;;-0.65;94.20703;94794.3;;;;
2021/01/08 01:19:22;;;;;;;23.05;12.6;;;;;;;-0.65;94.20703;94794.3;;;;
2021/01/08 01:20:22;;;;;;;23.05;12.6;;;;;;;-0.65;94.20703;94794.3;;;;
2021/01/08 01:21:23;;;;;;;23.05;12.6;;;;;;;-0.65;94.20703;94794.3;;;;
2021/01/08 01:22:24;;;;;;;23.05;12.6;;;;;;;-0.65;94.20703;94794.3;;;;
2021/01/08 01:23:25;;;;;;;23.05;12.6;;;;;;;-0.65;94.20703;94794.3;;;;
2021/01/08 01:24:25;;;;;;;21.6;12.25;;;;;;;-0.64;94.16797;94801.65;;;;
2021/01/08 01:25:26;;;;;;;21.6;12.25;;;;;;;-0.64;94.16797;94801.65;;;;
2021/01/08 01:26:26;;;;;;;21.6;12.25;;;;;;;-0.64;94.16797;94801.65;;;;
2021/01/08 01:27:27;;;;;;;21.6;12.25;;;;;;;-0.64;94.16797;94801.65;;;;
2021/01/08 01:28:27;;;;;;;21.6;12.25;;;;;;;-0.64;94.16797;94801.65;;;;
2021/01/08 01:29:28;;;;;;;21.6;12.25;;;;;;;-0.64;94.16797;94801.65;;;;
2021/01/08 01:30:29;;;;;;;21.6;12.25;;;;;;;-0.64;94.16797;94801.65;;;;
2021/01/08 01:31:29;;;;;;;21.6;12.25;;;;;;;-0.64;94.16797;94801.65;;;;
2021/01/08 01:32:30;;;;;;;21.6;12.25;;;;;;;-0.64;94.16797;94801.65;;;;
2021/01/08 01:33:30;;;;;;;21.6;12.25;;;;;;;-0.64;94.16797;94801.65;;;;
2021/01/08 01:34:31;;;;;;;21.6;12.25;;;;;;;-0.64;94.16797;94801.65;;;;
2021/01/08 01:35:32;;;;;;;22.85;12.35;;;;;;;-0.64;94.06445;94807.45;;;;
2021/01/08 01:36:32;;;;;;;22.85;12.35;;;;;;;-0.64;94.06445;94807.45;;;;
2021/01/08 01:37:33;;;;;;;22.85;12.35;;;;;;;-0.64;94.06445;94807.45;;;;
2021/01/08 01:38:33;;;;;;;22.85;12.35;;;;;;;-0.64;94.06445;94807.45;;;;
2021/01/08 01:39:35;;;;;;;22.85;12.35;;;;;;;-0.64;94.06445;94807.45;;;;
2021/01/08 01:40:35;;;;;;;22.85;12.35;;;;;;;-0.64;94.06445;94807.45;;;;
2021/01/08 01:41:36;;;;;;;22.85;12.35;;;;;;;-0.64;94.06445;94807.45;;;;
2021/01/08 01:42:37;;;;;;;22.85;12.35;;;;;;;-0.64;94.06445;94807.45;;;;
2021/01/08 01:43:37;;;;;;;22.85;12.35;;;;;;;-0.64;94.06445;94807.45;;;;
2021/01/08 01:44:38;;;;;;;22.85;12.35;;;;;;;-0.64;94.06445;94807.45;;;;
2021/01/08 01:45:38;;;;;;;21;11.2;;;;;;;-0.72;94.17188;94810.08;;;;
2021/01/08 01:46:39;;;;;;;21;11.2;;;;;;;-0.72;94.17188;94810.08;;;;
2021/01/08 01:47:40;;;;;;;21;11.2;;;;;;;-0.72;94.17188;94810.08;;;;
2021/01/08 01:48:41;;;;;;;21;11.2;;;;;;;-0.72;94.17188;94810.08;;;;
2021/01/08 01:49:41;;;;;;;21;11.2;;;;;;;-0.72;94.17188;94810.08;;;;
2021/01/08 01:50:42;;;;;;;21;11.2;;;;;;;-0.72;94.17188;94810.08;;;;
2021/01/08 01:51:43;;;;;;;21;11.2;;;;;;;-0.72;94.17188;94810.08;;;;
2021/01/08 01:52:43;;;;;;;21;11.2;;;;;;;-0.72;94.17188;94810.08;;;;
2021/01/08 01:53:44;;;;;;;21;11.2;;;;;;;-0.72;94.17188;94810.08;;;;
2021/01/08 01:54:44;;;;;;;21;11.2;;;;;;;-0.72;94.17188;94810.08;;;;
2021/01/08 01:55:45;;;;;;;21;11.2;;;;;;;-0.72;94.17188;94810.08;;;;
2021/01/08 01:56:45;;;;;;;22.45;12.8;;;;;;;-0.73;94.54102;94807.2;;;;
2021/01/08 01:57:46;;;;;;;22.45;12.8;;;;;;;-0.73;94.54102;94807.2;;;;
2021/01/08 01:58:46;;;;;;;22.45;12.8;;;;;;;-0.73;94.54102;94807.2;;;;
2021/01/08 01:59:47;;;;;;;22.45;12.8;;;;;;;-0.73;94.54102;94807.2;;;;
2021/01/08 02:00:47;;;;;;;22.45;12.8;;;;;;;-0.73;94.54102;94807.2;;;;
2021/01/08 02:01:48;;;;;;;22.45;12.8;;;;;;;-0.73;94.54102;94807.2;;;;
2021/01/08 02:02:48;;;;;;;22.45;12.8;;;;;;;-0.73;94.54102;94807.2;;;;
2021/01/08 02:03:52;;;;;;;22.45;12.8;;;;;;;-0.73;94.54102;94807.2;;;;
2021/01/08 02:04:56;;;;;;;22.45;12.8;;;;;;;-0.73;94.54102;94807.2;;;;
2021/01/08 02:06:00;;;;;;;22.45;12.8;;;;;;;-0.73;94.54102;94807.2;;;;
2021/01/08 02:07:08;;;;;;;21.15;12.4;;;;;;;-0.74;94.51758;94812.19;;;;
2021/01/08 02:08:09;;;;;;;21.15;12.4;;;;;;;-0.74;94.51758;94812.19;;;;
2021/01/08 02:09:16;;;;;;;21.15;12.4;;;;;;;-0.74;94.51758;94812.19;;;;
2021/01/08 02:10:18;;;;;;;21.15;12.4;;;;;;;-0.74;94.51758;94812.19;;;;
2021/01/08 02:11:20;;;;;;;21.15;12.4;;;;;;;-0.74;94.51758;94812.19;;;;
2021/01/08 02:12:24;;;;;;;21.15;12.4;;;;;;;-0.74;94.51758;94812.19;;;;
2021/01/08 02:13:26;;;;;;;21.15;12.4;;;;;;;-0.74;94.51758;94812.19;;;;
2021/01/08 02:14:32;;;;;;;21.15;12.4;;;;;;;-0.74;94.51758;94812.19;;;;
2021/01/08 02:15:35;;;;;;;21.15;12.4;;;;;;;-0.74;94.51758;94812.19;;;;
2021/01/08 02:16:35;;;;;;;21.15;12.4;;;;;;;-0.74;94.51758;94812.19;;;;
2021/01/08 02:17:39;;;;;;;23.55;11.35;;;;;;;-0.75;94.51563;94817.56;;;;
2021/01/08 02:18:40;;;;;;;23.55;11.35;;;;;;;-0.75;94.51563;94817.56;;;;
2021/01/08 02:19:43;;;;;;;23.55;11.35;;;;;;;-0.75;94.51563;94817.56;;;;
2021/01/08 02:20:46;;;;;;;23.55;11.35;;;;;;;-0.75;94.51563;94817.56;;;;
2021/01/08 02:21:49;;;;;;;23.55;11.35;;;;;;;-0.75;94.51563;94817.56;;;;
2021/01/08 02:22:55;;;;;;;23.55;11.35;;;;;;;-0.75;94.51563;94817.56;;;;
2021/01/08 02:24:04;;;;;;;23.55;11.35;;;;;;;-0.75;94.51563;94817.56;;;;
2021/01/08 02:25:20;;;;;;;23.55;11.35;;;;;;;-0.75;94.51563;94817.56;;;;
2021/01/08 02:26:24;;;;;;;23.55;11.35;;;;;;;-0.75;94.51563;94817.56;;;;
2021/01/08 02:27:25;;;;;;;23.55;11.35;;;;;;;-0.75;94.51563;94817.56;;;;
2021/01/08 02:28:29;;;;;;;21.1;11.75;;;;;;;-0.8;94.54688;94810.66;;;;
2021/01/08 02:29:30;;;;;;;21.1;11.75;;;;;;;-0.8;94.54688;94810.66;;;;
2021/01/08 02:30:32;;;;;;;21.1;11.75;;;;;;;-0.8;94.54688;94810.66;;;;
2021/01/08 02:31:33;;;;;;;21.1;11.75;;;;;;;-0.8;94.54688;94810.66;;;;
2021/01/08 02:32:34;;;;;;;21.1;11.75;;;;;;;-0.8;94.54688;94810.66;;;;
2021/01/08 02:33:36;;;;;;;21.1;11.75;;;;;;;-0.8;94.54688;94810.66;;;;
2021/01/08 02:34:36;;;;;;;21.1;11.75;;;;;;;-0.8;94.54688;94810.66;;;;
2021/01/08 02:35:38;;;;;;;21.1;11.75;;;;;;;-0.8;94.54688;94810.66;;;;
2021/01/08 02:36:40;;;;;;;21.1;11.75;;;;;;;-0.8;94.54688;94810.66;;;;
2021/01/08 02:37:43;;;;;;;21.1;11.75;;;;;;;-0.8;94.54688;94810.66;;;;
2021/01/08 02:38:44;;;;;;;21.1;11.75;;;;;;;-0.8;94.54688;94810.66;;;;
2021/01/08 02:39:49;;;;;;;22.15;12.3;;;;;;;-0.85;94.59863;94813.44;;;;
2021/01/08 02:40:50;;;;;;;22.15;12.3;;;;;;;-0.85;94.59863;94813.44;;;;
2021/01/08 02:41:51;;;;;;;22.15;12.3;;;;;;;-0.85;94.59863;94813.44;;;;
2021/01/08 02:42:54;;;;;;;22.15;12.3;;;;;;;-0.85;94.59863;94813.44;;;;
2021/01/08 02:44:01;;;;;;;22.15;12.3;;;;;;;-0.85;94.59863;94813.44;;;;
2021/01/08 02:45:02;;;;;;;22.15;12.3;;;;;;;-0.85;94.59863;94813.44;;;;
2021/01/08 02:46:04;;;;;;;22.15;12.3;;;;;;;-0.85;94.59863;94813.44;;;;
2021/01/08 02:47:04;;;;;;;22.15;12.3;;;;;;;-0.85;94.59863;94813.44;;;;
2021/01/08 02:48:05;;;;;;;22.15;12.3;;;;;;;-0.85;94.59863;94813.44;;;;
2021/01/08 02:49:06;;;;;;;22.15;12.3;;;;;;;-0.85;94.59863;94813.44;;;;
2021/01/08 02:50:07;;;;;;;20.3;12;;;;;;;-0.82;94.64648;94812.24;;;;
2021/01/08 02:51:09;;;;;;;20.3;12;;;;;;;-0.82;94.64648;94812.24;;;;
2021/01/08 02:52:10;;;;;;;20.3;12;;;;;;;-0.82;94.64648;94812.24;;;;
2021/01/08 02:53:10;;;;;;;20.3;12;;;;;;;-0.82;94.64648;94812.24;;;;
2021/01/08 02:54:13;;;;;;;20.3;12;;;;;;;-0.82;94.64648;94812.24;;;;
2021/01/08 02:55:14;;;;;;;20.3;12;;;;;;;-0.82;94.64648;94812.24;;;;
2021/01/08 02:56:19;;;;;;;20.3;12;;;;;;;-0.82;94.64648;94812.24;;;;
2021/01/08 02:57:24;;;;;;;20.3;12;;;;;;;-0.82;94.64648;94812.24;;;;
2021/01/08 02:58:25;;;;;;;20.3;12;;;;;;;-0.82;94.64648;94812.24;;;;
2021/01/08 02:59:28;;;;;;;20.3;12;;;;;;;-0.82;94.64648;94812.24;;;;
2021/01/08 03:00:29;;;;;;;23.5;12.15;;;;;;;-0.79;94.55762;94807.93;;;;
2021/01/08 03:01:32;;;;;;;23.5;12.15;;;;;;;-0.79;94.55762;94807.93;;;;
2021/01/08 03:02:34;;;;;;;23.5;12.15;;;;;;;-0.79;94.55762;94807.93;;;;
2021/01/08 03:03:35;;;;;;;23.5;12.15;;;;;;;-0.79;94.55762;94807.93;;;;
2021/01/08 03:04:36;;;;;;;23.5;12.15;;;;;;;-0.79;94.55762;94807.93;;;;
2021/01/08 03:05:36;;;;;;;23.5;12.15;;;;;;;-0.79;94.55762;94807.93;;;;
2021/01/08 03:06:37;;;;;;;23.5;12.15;;;;;;;-0.79;94.55762;94807.93;;;;
2021/01/08 03:07:42;;;;;;;23.5;12.15;;;;;;;-0.79;94.55762;94807.93;;;;
2021/01/08 03:08:42;;;;;;;23.5;12.15;;;;;;;-0.79;94.55762;94807.93;;;;
2021/01/08 03:09:43;;;;;;;23.5;12.15;;;;;;;-0.79;94.55762;94807.93;;;;
2021/01/08 03:10:44;;;;;;;23.5;12.15;;;;;;;-0.79;94.55762;94807.93;;;;
2021/01/08 03:11:44;;;;;;;23.4;13.05;;;;;;;-0.78;94.48926;94813.95;;;;
2021/01/08 03:12:54;;;;;;;23.4;13.05;;;;;;;-0.78;94.48926;94813.95;;;;
2021/01/08 03:13:57;;;;;;;23.4;13.05;;;;;;;-0.78;94.48926;94813.95;;;;
2021/01/08 03:14:59;;;;;;;23.4;13.05;;;;;;;-0.78;94.48926;94813.95;;;;
2021/01/08 03:16:02;;;;;;;23.4;13.05;;;;;;;-0.78;94.48926;94813.95;;;;
2021/01/08 03:17:03;;;;;;;23.4;13.05;;;;;;;-0.78;94.48926;94813.95;;;;
2021/01/08 03:18:04;;;;;;;23.4;13.05;;;;;;;-0.78;94.48926;94813.95;;;;
2021/01/08 03:19:05;;;;;;;23.4;13.05;;;;;;;-0.78;94.48926;94813.95;;;;
2021/01/08 03:20:05;;;;;;;23.4;13.05;;;;;;;-0.78;94.48926;94813.95;;;;
2021/01/08 03:21:07;;;;;;;23.4;13.05;;;;;;;-0.78;94.48926;94813.95;;;;
2021/01/08 03:22:08;;;;;;;21.05;11.65;;;;;;;-0.78;94.45801;94815.7;;;;
2021/01/08 03:23:08;;;;;;;21.05;11.65;;;;;;;-0.78;94.45801;94815.7;;;;
2021/01/08 03:24:09;;;;;;;21.05;11.65;;;;;;;-0.78;94.45801;94815.7;;;;
2021/01/08 03:25:10;;;;;;;21.05;11.65;;;;;;;-0.78;94.45801;94815.7;;;;
2021/01/08 03:26:11;;;;;;;21.05;11.65;;;;;;;-0.78;94.45801;94815.7;;;;
2021/01/08 03:27:12;;;;;;;21.05;11.65;;;;;;;-0.78;94.45801;94815.7;;;;
2021/01/08 03:28:12;;;;;;;21.05;11.65;;;;;;;-0.78;94.45801;94815.7;;;;
2021/01/08 03:29:13;;;;;;;21.05;11.65;;;;;;;-0.78;94.45801;94815.7;;;;
2021/01/08 03:30:13;;;;;;;21.05;11.65;;;;;;;-0.78;94.45801;94815.7;;;;
2021/01/08 03:31:15;;;;;;;21.05;11.65;;;;;;;-0.78;94.45801;94815.7;;;;
2021/01/08 03:32:15;;;;;;;21.05;11.65;;;;;;;-0.78;94.45801;94815.7;;;;
2021/01/08 03:33:16;;;;;;;23.1;12.9;;;;;;;-0.76;94.48242;94814.18;;;;
2021/01/08 03:34:16;;;;;;;23.1;12.9;;;;;;;-0.76;94.48242;94814.18;;;;
2021/01/08 03:35:17;;;;;;;23.1;12.9;;;;;;;-0.76;94.48242;94814.18;;;;
2021/01/08 03:36:17;;;;;;;23.1;12.9;;;;;;;-0.76;94.48242;94814.18;;;;
2021/01/08 03:37:18;;;;;;;23.1;12.9;;;;;;;-0.76;94.48242;94814.18;;;;
2021/01/08 03:38:18;;;;;;;23.1;12.9;;;;;;;-0.76;94.48242;94814.18;;;;
2021/01/08 03:39:19;;;;;;;23.1;12.9;;;;;;;-0.76;94.48242;94814.18;;;;
2021/01/08 03:40:19;;;;;;;23.1;12.9;;;;;;;-0.76;94.48242;94814.18;;;;
2021/01/08 03:41:20;;;;;;;23.1;12.9;;;;;;;-0.76;94.48242;94814.18;;;;
2021/01/08 03:42:20;;;;;;;23.1;12.9;;;;;;;-0.76;94.48242;94814.18;;;;
2021/01/08 03:43:21;;;;;;;24.85;12.3;;;;;;;-0.75;94.59863;94806.55;;;;
2021/01/08 03:44:21;;;;;;;24.85;12.3;;;;;;;-0.75;94.59863;94806.55;;;;
2021/01/08 03:45:22;;;;;;;24.85;12.3;;;;;;;-0.75;94.59863;94806.55;;;;
2021/01/08 03:46:22;;;;;;;24.85;12.3;;;;;;;-0.75;94.59863;94806.55;;;;
2021/01/08 03:47:23;;;;;;;24.85;12.3;;;;;;;-0.75;94.59863;94806.55;;;;
2021/01/08 03:48:23;;;;;;;24.85;12.3;;;;;;;-0.75;94.59863;94806.55;;;;
2021/01/08 03:49:24;;;;;;;24.85;12.3;;;;;;;-0.75;94.59863;94806.55;;;;
2021/01/08 03:50:24;;;;;;;24.85;12.3;;;;;;;-0.75;94.59863;94806.55;;;;
2021/01/08 03:51:25;;;;;;;24.85;12.3;;;;;;;-0.75;94.59863;94806.55;;;;
2021/01/08 03:52:25;;;;;;;24.85;12.3;;;;;;;-0.75;94.59863;94806.55;;;;
2021/01/08 03:53:26;;;;;;;24.85;12.3;;;;;;;-0.75;94.59863;94806.55;;;;
2021/01/08 03:54:27;;;;;;;21.5;11.9;;;;;;;-0.82;94.65723;94804.22;;;;
2021/01/08 03:55:27;;;;;;;21.5;11.9;;;;;;;-0.82;94.65723;94804.22;;;;
2021/01/08 03:56:28;;;;;;;21.5;11.9;;;;;;;-0.82;94.65723;94804.22;;;;
2021/01/08 03:57:28;;;;;;;21.5;11.9;;;;;;;-0.82;94.65723;94804.22;;;;
2021/01/08 03:58:29;;;;;;;21.5;11.9;;;;;;;-0.82;94.65723;94804.22;;;;
2021/01/08 03:59:29;;;;;;;21.5;11.9;;;;;;;-0.82;94.65723;94804.22;;;;
2021/01/08 04:00:30;;;;;;;21.5;11.9;;;;;;;-0.82;94.65723;94804.22;;;;
2021/01/08 04:01:30;;;;;;;21.5;11.9;;;;;;;-0.82;94.65723;94804.22;;;;
2021/01/08 04:02:30;;;;;;;21.5;11.9;;;;;;;-0.82;94.65723;94804.22;;;;
2021/01/08 04:03:31;;;;;;;21.5;11.9;;;;;;;-0.82;94.65723;94804.22;;;;
2021/01/08 04:04:31;;;;;;;19.8;11.35;;;;;;;-0.85;94.92773;94788.76;;;;
2021/01/08 04:05:32;;;;;;;19.8;11.35;;;;;;;-0.85;94.92773;94788.76;;;;
2021/01/08 04:06:33;;;;;;;19.8;11.35;;;;;;;-0.85;94.92773;94788.76;;;;
2021/01/08 04:07:33;;;;;;;19.8;11.35;;;;;;;-0.85;94.92773;94788.76;;;;
2021/01/08 04:08:34;;;;;;;19.8;11.35;;;;;;;-0.85;94.92773;94788.76;;;;
2021/01/08 04:09:34;;;;;;;19.8;11.35;;;;;;;-0.85;94.92773;94788.76;;;;
2021/01/08 04:10:35;;;;;;;19.8;11.35;;;;;;;-0.85;94.92773;94788.76;;;;
2021/01/08 04:11:35;;;;;;;19.8;11.35;;;;;;;-0.85;94.92773;94788.76;;;;
2021/01/08 04:12:36;;;;;;;19.8;11.35;;;;;;;-0.85;94.92773;94788.76;;;;
2021/01/08 04:13:36;;;;;;;19.8;11.35;;;;;;;-0.85;94.92773;94788.76;;;;
2021/01/08 04:14:37;;;;;;;19.8;11.35;;;;;;;-0.85;94.92773;94788.76;;;;
2021/01/08 04:15:37;;;;;;;22.85;12.85;;;;;;;-0.85;95.0957;94795.79;;;;
2021/01/08 04:16:38;;;;;;;22.85;12.85;;;;;;;-0.85;95.0957;94795.79;;;;
2021/01/08 04:17:38;;;;;;;22.85;12.85;;;;;;;-0.85;95.0957;94795.79;;;;
2021/01/08 04:18:39;;;;;;;22.85;12.85;;;;;;;-0.85;95.0957;94795.79;;;;
2021/01/08 04:19:39;;;;;;;22.85;12.85;;;;;;;-0.85;95.0957;94795.79;;;;
2021/01/08 04:20:40;;;;;;;22.85;12.85;;;;;;;-0.85;95.0957;94795.79;;;;
2021/01/08 04:21:40;;;;;;;22.85;12.85;;;;;;;-0.85;95.0957;94795.79;;;;
2021/01/08 04:22:41;;;;;;;22.85;12.85;;;;;;;-0.85;95.0957;94795.79;;;;
2021/01/08 04:23:41;;;;;;;22.85;12.85;;;;;;;-0.85;95.0957;94795.79;;;;
2021/01/08 04:24:42;;;;;;;22.85;12.85;;;;;;;-0.85;95.0957;94795.79;;;;
2021/01/08 04:25:42;;;;;;;24.75;13.15;;;;;;;-0.84;95.1582;94794.37;;;;
2021/01/08 04:26:43;;;;;;;24.75;13.15;;;;;;;-0.84;95.1582;94794.37;;;;
2021/01/08 04:27:43;;;;;;;24.75;13.15;;;;;;;-0.84;95.1582;94794.37;;;;
2021/01/08 04:28:43;;;;;;;24.75;13.15;;;;;;;-0.84;95.1582;94794.37;;;;
2021/01/08 04:29:44;;;;;;;24.75;13.15;;;;;;;-0.84;95.1582;94794.37;;;;
2021/01/08 04:30:45;;;;;;;24.75;13.15;;;;;;;-0.84;95.1582;94794.37;;;;
2021/01/08 04:31:45;;;;;;;24.75;13.15;;;;;;;-0.84;95.1582;94794.37;;;;
2021/01/08 04:32:46;;;;;;;24.75;13.15;;;;;;;-0.84;95.1582;94794.37;;;;
2021/01/08 04:33:46;;;;;;;24.75;13.15;;;;;;;-0.84;95.1582;94794.37;;;;
2021/01/08 04:34:47;;;;;;;24.75;13.15;;;;;;;-0.84;95.1582;94794.37;;;;
2021/01/08 04:35:47;;;;;;;24.75;13.15;;;;;;;-0.84;95.1582;94794.37;;;;
2021/01/08 04:36:48;;;;;;;21.8;12.2;;;;;;;-0.84;95.27344;94798.27;;;;
2021/01/08 04:37:49;;;;;;;21.8;12.2;;;;;;;-0.84;95.27344;94798.27;;;;
2021/01/08 04:38:49;;;;;;;21.8;12.2;;;;;;;-0.84;95.27344;94798.27;;;;
2021/01/08 04:39:50;;;;;;;21.8;12.2;;;;;;;-0.84;95.27344;94798.27;;;;
2021/01/08 04:40:50;;;;;;;21.8;12.2;;;;;;;-0.84;95.27344;94798.27;;;;
2021/01/08 04:41:51;;;;;;;21.8;12.2;;;;;;;-0.84;95.27344;94798.27;;;;
2021/01/08 04:42:52;;;;;;;21.8;12.2;;;;;;;-0.84;95.27344;94798.27;;;;
2021/01/08 04:43:52;;;;;;;21.8;12.2;;;;;;;-0.84;95.27344;94798.27;;;;
2021/01/08 04:44:53;;;;;;;21.8;12.2;;;;;;;-0.84;95.27344;94798.27;;;;
2021/01/08 04:45:53;;;;;;;21.8;12.2;;;;;;;-0.84;95.27344;94798.27;;;;
2021/01/08 04:46:58;;;;;;;21.8;12.2;;;;;;;-0.84;95.27344;94798.27;;;;
2021/01/08 04:47:58;;;;;;;21.75;11.95;;;;;;;-0.82;95.37109;94803.8;;;;
2021/01/08 04:49:00;;;;;;;21.75;11.95;;;;;;;-0.82;95.37109;94803.8;;;;
2021/01/08 04:50:03;;;;;;;21.75;11.95;;;;;;;-0.82;95.37109;94803.8;;;;
2021/01/08 04:51:05;;;;;;;21.75;11.95;;;;;;;-0.82;95.37109;94803.8;;;;
2021/01/08 04:52:05;;;;;;;21.75;11.95;;;;;;;-0.82;95.37109;94803.8;;;;
2021/01/08 04:53:08;;;;;;;21.75;11.95;;;;;;;-0.82;95.37109;94803.8;;;;
2021/01/08 04:54:09;;;;;;;21.75;11.95;;;;;;;-0.82;95.37109;94803.8;;;;
2021/01/08 04:55:10;;;;;;;21.75;11.95;;;;;;;-0.82;95.37109;94803.8;;;;
2021/01/08 04:56:10;;;;;;;21.75;11.95;;;;;;;-0.82;95.37109;94803.8;;;;
2021/01/08 04:57:14;;;;;;;21.75;11.95;;;;;;;-0.82;95.37109;94803.8;;;;
2021/01/08 04:58:16;;;;;;;23.7;13.35;;;;;;;-0.78;95.64844;94806.01;;;;
2021/01/08 04:59:17;;;;;;;23.7;13.35;;;;;;;-0.78;95.64844;94806.01;;;;
2021/01/08 05:00:18;;;;;;;23.7;13.35;;;;;;;-0.78;95.64844;94806.01;;;;
2021/01/08 05:01:19;;;;;;;23.7;13.35;;;;;;;-0.78;95.64844;94806.01;;;;
2021/01/08 05:02:20;;;;;;;23.7;13.35;;;;;;;-0.78;95.64844;94806.01;;;;
2021/01/08 05:03:21;;;;;;;23.7;13.35;;;;;;;-0.78;95.64844;94806.01;;;;
2021/01/08 05:04:21;;;;;;;23.7;13.35;;;;;;;-0.78;95.64844;94806.01;;;;
2021/01/08 05:05:22;;;;;;;23.7;13.35;;;;;;;-0.78;95.64844;94806.01;;;;
2021/01/08 05:06:22;;;;;;;23.7;13.35;;;;;;;-0.78;95.64844;94806.01;;;;
2021/01/08 05:07:24;;;;;;;23.7;13.35;;;;;;;-0.78;95.64844;94806.01;;;;
2021/01/08 05:08:25;;;;;;;23.7;13.35;;;;;;;-0.78;95.64844;94806.01;;;;
2021/01/08 05:09:26;;;;;;;24.2;13.1;;;;;;;-0.75;95.75;94810.46;;;;
2021/01/08 05:10:26;;;;;;;24.2;13.1;;;;;;;-0.75;95.75;94810.46;;;;
2021/01/08 05:11:27;;;;;;;24.2;13.1;;;;;;;-0.75;95.75;94810.46;;;;
2021/01/08 05:12:28;;;;;;;24.2;13.1;;;;;;;-0.75;95.75;94810.46;;;;
2021/01/08 05:13:44;;;;;;;24.2;13.1;;;;;;;-0.75;95.75;94810.46;;;;
2021/01/08 05:14:51;;;;;;;24.2;13.1;;;;;;;-0.75;95.75;94810.46;;;;
2021/01/08 05:15:52;;;;;;;24.2;13.1;;;;;;;-0.75;95.75;94810.46;;;;
2021/01/08 05:16:53;;;;;;;24.2;13.1;;;;;;;-0.75;95.75;94810.46;;;;
2021/01/08 05:17:55;;;;;;;24.2;13.1;;;;;;;-0.75;95.75;94810.46;;;;
2021/01/08 05:18:56;;;;;;;24.2;13.1;;;;;;;-0.75;95.75;94810.46;;;;
2021/01/08 05:19:58;;;;;;;26.5;14;;;;;;;-0.74;95.71094;94805.07;;;;
2021/01/08 05:21:00;;;;;;;26.5;14;;;;;;;-0.74;95.71094;94805.07;;;;
2021/01/08 05:22:01;;;;;;;26.5;14;;;;;;;-0.74;95.71094;94805.07;;;;
2021/01/08 05:23:01;;;;;;;26.5;14;;;;;;;-0.74;95.71094;94805.07;;;;
2021/01/08 05:24:04;;;;;;;26.5;14;;;;;;;-0.74;95.71094;94805.07;;;;
2021/01/08 05:25:05;;;;;;;26.5;14;;;;;;;-0.74;95.71094;94805.07;;;;
2021/01/08 05:26:07;;;;;;;26.5;14;;;;;;;-0.74;95.71094;94805.07;;;;
2021/01/08 05:27:12;;;;;;;26.5;14;;;;;;;-0.74;95.71094;94805.07;;;;
2021/01/08 05:28:13;;;;;;;26.5;14;;;;;;;-0.74;95.71094;94805.07;;;;
2021/01/08 05:29:15;;;;;;;26.5;14;;;;;;;-0.74;95.71094;94805.07;;;;
2021/01/08 05:30:16;;;;;;;24.25;12.95;;;;;;;-0.75;95.78125;94799.84;;;;
2021/01/08 05:31:18;;;;;;;24.25;12.95;;;;;;;-0.75;95.78125;94799.84;;;;
2021/01/08 05:32:21;;;;;;;24.25;12.95;;;;;;;-0.75;95.78125;94799.84;;;;
2021/01/08 05:33:23;;;;;;;24.25;12.95;;;;;;;-0.75;95.78125;94799.84;;;;
2021/01/08 05:34:23;;;;;;;24.25;12.95;;;;;;;-0.75;95.78125;94799.84;;;;
2021/01/08 05:35:26;;;;;;;24.25;12.95;;;;;;;-0.75;95.78125;94799.84;;;;
2021/01/08 05:36:28;;;;;;;24.25;12.95;;;;;;;-0.75;95.78125;94799.84;;;;
2021/01/08 05:37:28;;;;;;;24.25;12.95;;;;;;;-0.75;95.78125;94799.84;;;;
2021/01/08 05:38:29;;;;;;;24.25;12.95;;;;;;;-0.75;95.78125;94799.84;;;;
2021/01/08 05:39:33;;;;;;;24.25;12.95;;;;;;;-0.75;95.78125;94799.84;;;;
2021/01/08 05:40:34;;;;;;;25.4;13.9;;;;;;;-0.75;95.76074;94803.82;;;;
2021/01/08 05:41:38;;;;;;;25.4;13.9;;;;;;;-0.75;95.76074;94803.82;;;;
2021/01/08 05:42:40;;;;;;;25.4;13.9;;;;;;;-0.75;95.76074;94803.82;;;;
2021/01/08 05:43:52;;;;;;;25.4;13.9;;;;;;;-0.75;95.76074;94803.82;;;;